createdAt,value
2023-04-19T00:00:37.998Z,9.60
2023-04-19T00:01:38.091Z,9.30
2023-04-19T00:02:38.280Z,9.40
2023-04-19T00:03:38.191Z,9.60
2023-04-19T00:04:38.062Z,9.30
2023-04-19T00:05:37.906Z,9.70
2023-04-19T00:06:37.915Z,9.50
2023-04-19T00:07:37.931Z,9.80
2023-04-19T00:08:37.858Z,9.50
2023-04-19T00:09:37.862Z,9.30
2023-04-19T00:10:37.833Z,9.80
2023-04-19T00:11:37.815Z,10.20
2023-04-19T00:12:37.849Z,9.20
2023-04-19T00:13:37.801Z,9.80
2023-04-19T00:14:37.844Z,10.10
2023-04-19T00:15:37.766Z,9.80
2023-04-19T00:16:37.793Z,10.00
2023-04-19T00:17:37.813Z,9.40
2023-04-19T00:18:37.729Z,10.30
2023-04-19T00:19:37.711Z,10.00
2023-04-19T00:20:37.715Z,9.80
2023-04-19T00:21:37.698Z,10.00
2023-04-19T00:22:37.692Z,10.40
2023-04-19T00:23:37.692Z,10.40
2023-04-19T00:24:37.648Z,10.30
2023-04-19T00:25:37.633Z,10.20
2023-04-19T00:26:37.635Z,11.00
2023-04-19T00:27:37.626Z,10.10
2023-04-19T00:28:37.601Z,10.00
2023-04-19T00:29:37.578Z,10.90
2023-04-19T00:30:37.615Z,10.30
2023-04-19T00:31:37.549Z,9.90
2023-04-19T00:32:37.590Z,9.70
2023-04-19T00:33:37.572Z,9.00
2023-04-19T00:34:37.513Z,9.50
2023-04-19T00:35:37.492Z,9.50
2023-04-19T00:36:37.544Z,9.30
2023-04-19T00:37:37.509Z,9.20
2023-04-19T00:38:37.448Z,9.50
2023-04-19T00:39:37.479Z,9.30
2023-04-19T00:40:37.459Z,9.80
2023-04-19T00:41:37.461Z,9.20
2023-04-19T00:42:37.447Z,9.70
2023-04-19T00:43:37.421Z,8.90
2023-04-19T00:44:37.423Z,10.30
2023-04-19T00:45:37.390Z,10.20
2023-04-19T00:46:37.489Z,11.60
2023-04-19T00:47:37.403Z,10.20
2023-04-19T00:48:37.381Z,9.70
2023-04-19T00:49:37.362Z,10.00
2023-04-19T00:50:37.327Z,10.10
2023-04-19T00:51:37.388Z,10.00
2023-04-19T00:52:37.339Z,10.20
2023-04-19T00:53:37.300Z,10.00
2023-04-19T00:54:37.280Z,10.50
2023-04-19T00:55:37.262Z,10.10
2023-04-19T00:56:37.256Z,10.50
2023-04-19T00:57:37.267Z,9.90
2023-04-19T00:58:37.215Z,10.90
2023-04-19T00:59:37.210Z,10.40
2023-04-19T01:00:37.234Z,10.20
2023-04-19T01:01:37.212Z,11.00
2023-04-19T01:02:37.259Z,11.30
2023-04-19T01:03:37.367Z,11.10
2023-04-19T01:04:37.168Z,12.10
2023-04-19T01:05:37.162Z,11.90
2023-04-19T01:06:37.153Z,11.20
2023-04-19T01:07:37.104Z,10.70
2023-04-19T01:08:37.133Z,10.20
2023-04-19T01:09:37.084Z,9.60
2023-04-19T01:10:37.084Z,9.80
2023-04-19T01:11:37.057Z,10.50
2023-04-19T01:12:37.060Z,10.20
2023-04-19T01:13:37.031Z,10.80
2023-04-19T01:14:37.054Z,10.60
2023-04-19T01:15:37.036Z,10.10
2023-04-19T01:16:36.973Z,10.00
2023-04-19T01:17:37.062Z,9.90
2023-04-19T01:18:36.951Z,9.80
2023-04-19T01:19:36.951Z,10.30
2023-04-19T01:20:36.938Z,10.30
2023-04-19T01:21:36.942Z,9.90
2023-04-19T01:22:36.932Z,9.90
2023-04-19T01:23:36.903Z,9.60
2023-04-19T01:24:36.885Z,10.30
2023-04-19T01:25:36.880Z,9.60
2023-04-19T01:26:36.852Z,10.70
2023-04-19T01:27:36.856Z,11.30
2023-04-19T01:28:36.842Z,10.40
2023-04-19T01:29:36.803Z,9.70
2023-04-19T01:30:36.822Z,10.70
2023-04-19T01:31:36.818Z,9.50
2023-04-19T01:32:36.862Z,10.90
2023-04-19T01:33:36.814Z,10.20
2023-04-19T01:34:36.793Z,9.90
2023-04-19T01:35:36.755Z,9.20
2023-04-19T01:36:36.783Z,9.20
2023-04-19T01:37:36.731Z,9.90
2023-04-19T01:38:36.718Z,10.50
2023-04-19T01:39:36.686Z,10.30
2023-04-19T01:40:36.684Z,9.90
2023-04-19T01:41:36.723Z,9.90
2023-04-19T01:42:36.681Z,11.20
2023-04-19T01:43:36.640Z,11.50
2023-04-19T01:44:36.660Z,12.30
2023-04-19T01:45:36.606Z,12.10
2023-04-19T01:46:36.674Z,12.40
2023-04-19T01:47:36.621Z,12.40
2023-04-19T01:48:36.582Z,12.30
2023-04-19T01:49:36.556Z,12.70
2023-04-19T01:50:36.560Z,12.60
2023-04-19T01:51:36.518Z,12.70
2023-04-19T01:52:36.557Z,13.20
2023-04-19T01:53:36.514Z,13.30
2023-04-19T01:54:36.488Z,13.80
2023-04-19T01:55:36.501Z,13.90
2023-04-19T01:56:36.475Z,13.60
2023-04-19T01:57:36.475Z,13.20
2023-04-19T01:58:36.447Z,13.20
2023-04-19T01:59:36.427Z,13.60
2023-04-19T02:00:36.510Z,14.20
2023-04-19T02:01:36.421Z,13.80
2023-04-19T02:02:36.506Z,14.00
2023-04-19T02:03:36.507Z,13.70
2023-04-19T02:04:36.405Z,13.80
2023-04-19T02:05:36.339Z,14.10
2023-04-19T02:06:36.350Z,13.50
2023-04-19T02:07:36.334Z,14.00
2023-04-19T02:08:36.335Z,12.60
2023-04-19T02:09:36.300Z,13.60
2023-04-19T02:10:36.340Z,13.80
2023-04-19T02:11:36.281Z,14.50
2023-04-19T02:12:36.328Z,14.00
2023-04-19T02:13:36.264Z,13.40
2023-04-19T02:14:36.253Z,13.20
2023-04-19T02:15:36.223Z,13.60
2023-04-19T02:16:36.548Z,12.80
2023-04-19T02:17:36.274Z,13.00
2023-04-19T02:18:36.209Z,13.10
2023-04-19T02:19:36.258Z,13.50
2023-04-19T02:20:36.219Z,14.70
2023-04-19T02:21:36.151Z,13.00
2023-04-19T02:22:36.130Z,13.50
2023-04-19T02:23:36.123Z,12.90
2023-04-19T02:24:36.170Z,13.30
2023-04-19T02:25:36.096Z,13.70
2023-04-19T02:26:36.081Z,12.60
2023-04-19T02:27:36.091Z,13.30
2023-04-19T02:28:36.120Z,13.30
2023-04-19T02:29:36.043Z,13.20
2023-04-19T02:30:36.050Z,11.70
2023-04-19T02:31:36.052Z,13.50
2023-04-19T02:32:36.083Z,14.30
2023-04-19T02:33:36.090Z,14.30
2023-04-19T02:34:35.990Z,13.00
2023-04-19T02:35:35.980Z,13.70
2023-04-19T02:36:35.954Z,13.70
2023-04-19T02:37:35.965Z,15.70
2023-04-19T02:38:36.046Z,14.20
2023-04-19T02:39:35.908Z,14.10
2023-04-19T02:40:35.924Z,14.90
2023-04-19T02:41:35.909Z,15.50
2023-04-19T02:42:35.898Z,15.30
2023-04-19T02:43:35.874Z,16.40
2023-04-19T02:44:35.882Z,15.50
2023-04-19T02:45:35.859Z,14.50
2023-04-19T02:46:35.891Z,15.20
2023-04-19T02:47:35.842Z,14.80
2023-04-19T02:48:35.841Z,13.80
2023-04-19T02:49:35.798Z,13.90
2023-04-19T02:50:35.788Z,15.00
2023-04-19T02:51:35.763Z,16.50
2023-04-19T02:52:35.756Z,15.20
2023-04-19T02:53:35.795Z,14.90
2023-04-19T02:54:35.733Z,15.10
2023-04-19T02:55:35.706Z,14.70
2023-04-19T02:56:35.710Z,13.50
2023-04-19T02:57:35.707Z,15.20
2023-04-19T02:58:35.726Z,15.00
2023-04-19T02:59:35.672Z,14.70
2023-04-19T03:00:35.654Z,14.70
2023-04-19T03:01:35.671Z,14.90
2023-04-19T03:02:35.671Z,14.20
2023-04-19T03:03:35.714Z,16.50
2023-04-19T03:04:35.639Z,17.00
2023-04-19T03:05:35.587Z,14.70
2023-04-19T03:06:35.620Z,18.00
2023-04-19T03:07:35.559Z,14.50
2023-04-19T03:08:35.563Z,15.40
2023-04-19T03:09:35.560Z,16.00
2023-04-19T03:10:35.529Z,15.00
2023-04-19T03:11:35.513Z,14.00
2023-04-19T03:12:35.487Z,13.70
2023-04-19T03:13:35.517Z,14.60
2023-04-19T03:14:35.500Z,16.00
2023-04-19T03:15:35.479Z,15.10
2023-04-19T03:16:35.434Z,14.70
2023-04-19T03:17:35.474Z,15.30
2023-04-19T03:18:35.416Z,14.70
2023-04-19T03:19:35.390Z,15.30
2023-04-19T03:20:35.382Z,15.80
2023-04-19T03:21:35.394Z,16.80
2023-04-19T03:22:35.430Z,16.20
2023-04-19T03:23:35.373Z,18.80
2023-04-19T03:24:37.588Z,21.00
2023-04-19T03:25:35.341Z,20.90
2023-04-19T03:26:35.320Z,18.40
2023-04-19T03:27:35.307Z,17.70
2023-04-19T03:28:35.374Z,20.10
2023-04-19T03:29:35.324Z,18.50
2023-04-19T03:30:35.381Z,17.50
2023-04-19T03:31:35.269Z,18.50
2023-04-19T03:32:35.324Z,17.80
2023-04-19T03:33:35.296Z,17.90
2023-04-19T03:34:35.348Z,19.80
2023-04-19T03:35:35.186Z,22.90
2023-04-19T03:36:35.174Z,18.40
2023-04-19T03:37:35.162Z,18.70
2023-04-19T03:38:35.177Z,20.70
2023-04-19T03:39:35.152Z,18.00
2023-04-19T03:40:35.137Z,20.10
2023-04-19T03:41:35.100Z,19.50
2023-04-19T03:42:35.095Z,18.40
2023-04-19T03:43:35.086Z,22.70
2023-04-19T03:44:35.088Z,25.00
2023-04-19T03:45:35.053Z,20.30
2023-04-19T03:46:35.072Z,20.70
2023-04-19T03:47:35.042Z,19.00
2023-04-19T03:48:35.028Z,21.90
2023-04-19T03:49:35.020Z,18.40
2023-04-19T04:03:08.692Z,18.70
2023-04-19T04:04:08.627Z,17.10
2023-04-19T04:05:08.650Z,18.20
2023-04-19T04:06:08.501Z,19.60
2023-04-19T04:07:08.482Z,18.80
2023-04-19T04:08:08.486Z,18.60
2023-04-19T04:09:08.538Z,18.40
2023-04-19T04:10:08.462Z,19.10
2023-04-19T04:11:08.460Z,17.80
2023-04-19T04:12:08.439Z,18.90
2023-04-19T04:13:08.437Z,18.30
2023-04-19T04:14:08.455Z,17.20
2023-04-19T04:15:08.404Z,18.10
2023-04-19T04:16:08.404Z,18.10
2023-04-19T04:17:08.385Z,18.50
2023-04-19T04:18:09.174Z,17.50
2023-04-19T04:19:08.346Z,17.70
2023-04-19T04:20:08.345Z,19.40
2023-04-19T04:21:08.313Z,18.80
2023-04-19T04:22:08.368Z,18.70
2023-04-19T04:23:08.290Z,17.80
2023-04-19T04:24:08.274Z,19.80
2023-04-19T04:25:08.266Z,22.90
2023-04-19T04:26:08.259Z,18.60
2023-04-19T04:27:08.267Z,18.60
2023-04-19T04:28:08.213Z,22.70
2023-04-19T04:29:08.231Z,21.20
2023-04-19T04:30:08.211Z,18.70
2023-04-19T04:31:08.214Z,18.00
2023-04-19T04:32:08.264Z,18.40
2023-04-19T04:33:08.280Z,17.90
2023-04-19T04:34:08.177Z,22.00
2023-04-19T04:35:08.193Z,19.10
2023-04-19T04:36:09.790Z,18.90
2023-04-19T04:37:08.127Z,22.00
2023-04-19T04:38:17.427Z,19.10
2023-04-19T04:39:09.113Z,19.00
2023-04-19T04:40:08.144Z,18.60
2023-04-19T04:41:08.076Z,19.00
2023-04-19T04:42:08.066Z,19.30
2023-04-19T04:43:08.095Z,19.20
2023-04-19T04:44:12.086Z,18.50
2023-04-19T04:45:08.024Z,19.30
2023-04-19T04:46:08.033Z,20.30
2023-04-19T04:47:08.002Z,19.80
2023-04-19T04:48:08.023Z,18.50
2023-04-19T04:49:07.971Z,22.90
2023-04-19T04:50:07.960Z,18.90
2023-04-19T04:51:07.985Z,18.60
2023-04-19T04:52:07.940Z,18.20
2023-04-19T04:53:07.921Z,18.70
2023-04-19T04:54:07.897Z,18.40
2023-04-19T04:55:07.914Z,19.70
2023-04-19T04:56:07.892Z,20.50
2023-04-19T04:57:07.863Z,21.80
2023-04-19T04:58:07.866Z,22.40
2023-04-19T04:59:07.842Z,22.00
2023-04-19T05:00:07.848Z,20.00
2023-04-19T05:01:07.835Z,18.90
2023-04-19T05:02:07.853Z,19.00
2023-04-19T05:03:08.185Z,17.50
2023-04-19T05:04:07.819Z,18.50
2023-04-19T05:05:07.797Z,18.20
2023-04-19T05:06:07.753Z,18.60
2023-04-19T05:07:07.741Z,17.30
2023-04-19T05:08:07.732Z,17.70
2023-04-19T05:09:07.702Z,17.40
2023-04-19T05:10:07.719Z,17.30
2023-04-19T05:11:07.689Z,17.70
2023-04-19T05:12:07.663Z,17.30
2023-04-19T05:13:07.673Z,18.00
2023-04-19T05:14:07.714Z,17.00
2023-04-19T05:15:07.662Z,17.30
2023-04-19T05:16:07.639Z,18.40
2023-04-19T05:17:07.611Z,20.40
2023-04-19T05:18:07.601Z,20.20
2023-04-19T05:19:07.571Z,19.60
2023-04-19T05:20:07.610Z,21.10
2023-04-19T05:21:07.558Z,21.50
2023-04-19T05:22:07.526Z,21.00
2023-04-19T05:23:07.548Z,21.60
2023-04-19T05:24:07.526Z,19.60
2023-04-19T05:25:07.533Z,21.80
2023-04-19T05:26:07.480Z,20.90
2023-04-19T05:27:07.495Z,22.20
2023-04-19T05:28:07.477Z,22.20
2023-04-19T05:29:07.452Z,19.50
2023-04-19T05:30:07.463Z,19.60
2023-04-19T05:31:07.457Z,19.80
2023-04-19T05:32:07.409Z,19.80
2023-04-19T05:33:07.454Z,20.00
2023-04-19T05:34:07.398Z,18.70
2023-04-19T05:35:07.400Z,19.40
2023-04-19T05:36:07.371Z,20.70
2023-04-19T05:37:07.353Z,20.00
2023-04-19T05:38:07.342Z,18.90
2023-04-19T05:39:07.366Z,18.70
2023-04-19T05:40:07.319Z,20.10
2023-04-19T05:41:07.284Z,20.70
2023-04-19T05:42:07.307Z,19.90
2023-04-19T05:43:07.264Z,20.40
2023-04-19T05:44:07.292Z,20.10
2023-04-19T05:45:07.283Z,20.00
2023-04-19T05:46:07.302Z,20.40
2023-04-19T05:47:07.252Z,19.40
2023-04-19T05:48:07.244Z,19.50
2023-04-19T05:49:07.219Z,19.60
2023-04-19T05:50:07.183Z,20.40
2023-04-19T05:51:07.181Z,19.90
2023-04-19T05:52:07.181Z,19.90
2023-04-19T05:53:07.153Z,19.80
2023-04-19T05:54:07.129Z,18.90
2023-04-19T05:55:07.152Z,18.60
2023-04-19T05:56:07.094Z,18.30
2023-04-19T05:57:07.105Z,18.30
2023-04-19T05:58:07.076Z,19.00
2023-04-19T05:59:07.068Z,18.70
2023-04-19T06:00:07.078Z,18.60
2023-04-19T06:01:07.058Z,17.30
2023-04-19T06:02:07.112Z,18.60
2023-04-19T06:03:07.273Z,18.20
2023-04-19T06:04:07.109Z,18.30
2023-04-19T06:05:10.371Z,18.40
2023-04-19T06:06:07.006Z,18.40
2023-04-19T06:07:13.596Z,17.90
2023-04-19T06:08:07.968Z,17.70
2023-04-19T06:09:06.942Z,18.70
2023-04-19T06:10:06.926Z,18.60
2023-04-19T06:11:15.711Z,18.70
2023-04-19T06:12:08.094Z,18.40
2023-04-19T06:13:06.887Z,18.50
2023-04-19T06:14:06.868Z,17.70
2023-04-19T06:15:06.876Z,18.40
2023-04-19T06:16:06.859Z,18.50
2023-04-19T06:17:06.841Z,18.90
2023-04-19T06:18:06.840Z,17.80
2023-04-19T06:19:06.823Z,19.00
2023-04-19T06:20:06.793Z,19.30
2023-04-19T06:21:06.762Z,17.80
2023-04-19T06:22:06.771Z,18.10
2023-04-19T06:23:06.779Z,18.60
2023-04-19T06:24:06.746Z,18.30
2023-04-19T06:25:06.725Z,19.10
2023-04-19T06:26:06.714Z,18.90
2023-04-19T06:27:06.698Z,19.20
2023-04-19T06:28:06.704Z,19.00
2023-04-19T06:29:06.666Z,19.60
2023-04-19T06:30:06.678Z,18.50
2023-04-19T06:31:06.697Z,19.10
2023-04-19T06:32:06.624Z,19.10
2023-04-19T06:33:06.632Z,19.10
2023-04-19T06:34:06.599Z,18.10
2023-04-19T06:35:06.620Z,17.60
2023-04-19T06:36:06.595Z,19.60
2023-04-19T06:37:06.577Z,17.70
2023-04-19T06:38:06.582Z,18.00
2023-04-19T06:39:06.539Z,18.20
2023-04-19T06:40:06.545Z,18.30
2023-04-19T06:41:06.519Z,18.80
2023-04-19T06:42:06.501Z,18.10
2023-04-19T06:43:06.517Z,18.50
2023-04-19T06:44:06.478Z,18.30
2023-04-19T06:45:06.557Z,18.00
2023-04-19T06:46:06.492Z,18.60
2023-04-19T06:47:06.487Z,17.90
2023-04-19T06:48:06.528Z,18.50
2023-04-19T06:49:06.419Z,19.40
2023-04-19T06:50:06.411Z,17.80
2023-04-19T06:51:06.425Z,19.60
2023-04-19T06:52:06.414Z,17.90
2023-04-19T06:53:06.363Z,19.70
2023-04-19T06:54:06.357Z,17.80
2023-04-19T06:55:06.350Z,17.70
2023-04-19T06:56:06.365Z,18.30
2023-04-19T06:57:06.325Z,18.10
2023-04-19T06:58:06.307Z,19.10
2023-04-19T06:59:06.303Z,19.20
2023-04-19T07:00:06.308Z,18.90
2023-04-19T07:01:06.392Z,19.60
2023-04-19T07:02:06.392Z,19.20
2023-04-19T07:03:06.353Z,18.40
2023-04-19T07:04:06.328Z,18.10
2023-04-19T07:05:06.223Z,17.90
2023-04-19T07:06:06.229Z,17.50
2023-04-19T07:07:06.188Z,17.70
2023-04-19T07:08:06.185Z,17.70
2023-04-19T07:09:06.202Z,18.20
2023-04-19T07:10:06.193Z,17.80
2023-04-19T07:11:06.153Z,18.30
2023-04-19T07:12:06.129Z,18.20
2023-04-19T07:13:06.168Z,17.80
2023-04-19T07:14:06.100Z,18.30
2023-04-19T07:15:06.089Z,17.90
2023-04-19T07:16:06.105Z,18.10
2023-04-19T07:17:06.230Z,18.60
2023-04-19T07:18:06.083Z,17.20
2023-04-19T07:19:06.029Z,17.00
2023-04-19T07:20:06.019Z,17.60
2023-04-19T07:21:06.021Z,17.90
2023-04-19T07:22:05.983Z,18.00
2023-04-19T07:23:06.061Z,18.60
2023-04-19T07:24:05.996Z,17.60
2023-04-19T07:25:05.965Z,17.60
2023-04-19T07:26:05.937Z,17.50
2023-04-19T07:27:05.926Z,17.90
2023-04-19T07:28:05.911Z,17.40
2023-04-19T07:29:06.209Z,18.60
2023-04-19T07:30:05.893Z,18.00
2023-04-19T07:31:05.898Z,18.20
2023-04-19T07:32:05.912Z,18.10
2023-04-19T07:33:05.889Z,17.90
2023-04-19T07:34:05.853Z,17.10
2023-04-19T07:35:05.826Z,17.00
2023-04-19T07:36:05.833Z,16.30
2023-04-19T07:37:05.786Z,17.60
2023-04-19T07:38:05.774Z,17.70
2023-04-19T07:39:05.777Z,17.40
2023-04-19T07:40:05.756Z,17.40
2023-04-19T07:41:05.737Z,17.80
2023-04-19T07:42:05.710Z,18.00
2023-04-19T07:43:05.708Z,17.30
2023-04-19T07:44:05.690Z,16.80
2023-04-19T07:45:05.692Z,17.30
2023-04-19T07:46:05.742Z,17.00
2023-04-19T07:47:05.656Z,16.10
2023-04-19T07:48:05.681Z,16.40
2023-04-19T07:49:05.628Z,16.80
2023-04-19T07:50:05.651Z,16.20
2023-04-19T07:51:05.599Z,17.10
2023-04-19T07:52:05.589Z,16.90
2023-04-19T07:53:05.577Z,17.00
2023-04-19T07:54:05.583Z,16.70
2023-04-19T07:55:05.562Z,17.80
2023-04-19T07:56:05.542Z,17.10
2023-04-19T07:57:05.513Z,16.90
2023-04-19T07:58:05.519Z,17.70
2023-04-19T07:59:08.803Z,18.30
2023-04-19T08:00:05.502Z,16.40
2023-04-19T08:01:05.516Z,17.40
2023-04-19T08:02:05.503Z,16.80
2023-04-19T08:03:05.645Z,17.70
2023-04-19T08:04:05.923Z,17.90
2023-04-19T08:05:05.528Z,17.10
2023-04-19T08:06:05.408Z,17.60
2023-04-19T08:07:05.407Z,18.80
2023-04-19T08:08:05.403Z,17.70
2023-04-19T08:09:05.352Z,18.10
2023-04-19T08:10:05.509Z,17.90
2023-04-19T08:11:05.335Z,18.60
2023-04-19T08:12:05.348Z,18.80
2023-04-19T08:13:06.600Z,19.70
2023-04-19T08:14:18.275Z,19.40
2023-04-19T08:15:19.912Z,19.00
2023-04-19T08:18:05.344Z,19.90
2023-04-19T08:19:05.219Z,19.30
2023-04-19T08:20:05.240Z,19.20
2023-04-19T08:21:05.204Z,20.10
2023-04-19T08:22:05.196Z,21.30
2023-04-19T08:23:18.164Z,20.90
2023-04-19T08:24:06.194Z,21.20
2023-04-19T08:25:05.152Z,21.30
2023-04-19T08:26:05.156Z,20.90
2023-04-19T08:27:05.136Z,21.40
2023-04-19T08:28:05.120Z,22.50
2023-04-19T08:29:05.104Z,21.70
2023-04-19T08:30:05.079Z,23.30
2023-04-19T08:31:05.082Z,23.40
2023-04-19T08:32:05.195Z,23.20
2023-04-19T08:33:05.062Z,23.10
2023-04-19T08:34:05.072Z,23.40
2023-04-19T08:35:05.021Z,23.50
2023-04-19T08:36:05.116Z,23.60
2023-04-19T08:37:05.213Z,24.10
2023-04-19T08:38:05.034Z,24.40
2023-04-19T08:39:29.373Z,24.30
2023-04-19T08:40:05.959Z,21.90
2023-04-19T08:41:04.952Z,25.20
2023-04-19T08:42:07.493Z,24.00
2023-04-19T08:43:05.925Z,23.00
2023-04-19T08:44:04.935Z,23.80
2023-04-19T08:46:05.977Z,23.20
2023-04-19T08:47:04.871Z,23.00
2023-04-19T08:48:04.906Z,21.90
2023-04-19T08:49:04.836Z,23.70
2023-04-19T08:50:17.387Z,22.80
2023-04-19T08:51:06.177Z,23.20
2023-04-19T08:52:04.805Z,23.10
2023-04-19T08:53:20.833Z,21.90
2023-04-19T08:54:05.822Z,22.90
2023-04-19T08:55:04.756Z,23.10
2023-04-19T08:56:17.446Z,22.90
2023-04-19T08:57:05.732Z,23.70
2023-04-19T08:58:09.572Z,22.20
2023-04-19T09:00:05.701Z,23.70
2023-04-19T09:01:04.746Z,22.70
2023-04-19T09:02:04.764Z,22.60
2023-04-19T09:03:04.883Z,21.30
2023-04-19T09:04:16.927Z,23.30
2023-04-19T09:05:05.715Z,23.30
2023-04-19T09:06:04.908Z,21.20
2023-04-19T09:07:04.602Z,21.70
2023-04-19T09:08:04.594Z,20.90
2023-04-19T09:09:04.582Z,21.30
2023-04-19T09:10:05.241Z,20.30
2023-04-19T09:11:04.553Z,19.30
2023-04-19T09:12:04.542Z,19.70
2023-04-19T09:13:04.537Z,20.10
2023-04-19T09:14:04.540Z,20.10
2023-04-19T09:15:04.548Z,18.80
2023-04-19T09:16:04.670Z,18.30
2023-04-19T09:17:04.497Z,18.10
2023-04-19T09:18:04.512Z,19.20
2023-04-19T09:20:04.464Z,17.70
2023-04-19T09:21:04.447Z,17.80
2023-04-19T09:22:04.394Z,16.90
2023-04-19T09:23:04.387Z,17.20
2023-04-19T09:24:04.381Z,16.70
2023-04-19T09:25:30.086Z,16.20
2023-04-19T09:26:22.775Z,16.00
2023-04-19T09:27:05.336Z,15.70
2023-04-19T09:28:04.343Z,15.70
2023-04-19T09:29:04.320Z,16.50
2023-04-19T09:30:04.311Z,14.80
2023-04-19T09:31:15.516Z,16.10
2023-04-19T09:32:05.329Z,14.70
2023-04-19T09:33:04.323Z,16.60
2023-04-19T09:34:04.256Z,16.00
2023-04-19T09:35:04.235Z,16.00
2023-04-19T09:36:04.258Z,15.40
2023-04-19T09:37:12.138Z,15.10
2023-04-19T09:38:06.853Z,15.50
2023-04-19T09:39:04.190Z,14.50
2023-04-19T09:40:04.170Z,14.90
2023-04-19T09:41:04.174Z,14.20
2023-04-19T09:42:04.152Z,15.60
2023-04-19T09:43:17.954Z,15.40
2023-04-19T09:46:04.129Z,14.60
2023-04-19T09:47:04.089Z,15.80
2023-04-19T10:03:05.738Z,13.00
2023-04-19T10:04:14.826Z,13.00
2023-04-19T10:06:10.728Z,12.30
2023-04-19T10:07:29.190Z,12.10
2023-04-19T10:08:06.728Z,11.60
2023-04-19T10:09:05.607Z,11.70
2023-04-19T10:10:18.571Z,11.30
2023-04-19T10:11:06.605Z,11.40
2023-04-19T10:12:18.572Z,12.40
2023-04-19T10:13:18.958Z,12.10
2023-04-19T10:14:06.554Z,11.50
2023-04-19T10:15:05.543Z,11.10
2023-04-19T10:16:18.060Z,11.40
2023-04-19T10:18:15.366Z,9.70
2023-04-19T10:19:15.553Z,10.50
2023-04-19T10:20:15.374Z,10.90
2023-04-19T10:21:15.337Z,10.90
2023-04-19T10:22:15.318Z,10.40
2023-04-19T10:23:15.324Z,9.90
2023-04-19T10:24:15.310Z,10.40
2023-04-19T10:25:15.315Z,10.00
2023-04-19T10:26:15.266Z,9.80
2023-04-19T10:27:15.276Z,9.70
2023-04-19T10:28:15.233Z,9.60
2023-04-19T10:29:15.396Z,9.70
2023-04-19T10:30:15.340Z,8.90
2023-04-19T10:31:15.221Z,8.70
2023-04-19T10:32:15.233Z,8.70
2023-04-19T10:33:15.173Z,8.20
2023-04-19T10:34:15.181Z,8.60
2023-04-19T10:35:15.155Z,8.70
2023-04-19T10:36:15.186Z,8.40
2023-04-19T10:37:15.136Z,8.50
2023-04-19T10:38:15.114Z,8.00
2023-04-19T10:39:15.300Z,8.20
2023-04-19T10:40:15.097Z,8.00
2023-04-19T10:41:17.377Z,8.10
2023-04-19T10:42:15.088Z,7.90
2023-04-19T10:43:15.051Z,7.00
2023-04-19T10:44:15.050Z,7.00
2023-04-19T10:45:15.029Z,7.40
2023-04-19T10:46:15.053Z,7.30
2023-04-19T10:47:14.988Z,7.00
2023-04-19T10:48:15.021Z,7.10
2023-04-19T10:49:15.339Z,7.30
2023-04-19T10:50:14.970Z,6.70
2023-04-19T10:51:14.956Z,6.90
2023-04-19T10:52:14.931Z,6.50
2023-04-19T10:53:14.958Z,6.80
2023-04-19T10:54:14.895Z,6.40
2023-04-19T10:55:14.893Z,6.50
2023-04-19T10:56:14.862Z,6.70
2023-04-19T10:57:14.878Z,5.80
2023-04-19T10:58:14.906Z,5.90
2023-04-19T10:59:15.193Z,6.30
2023-04-19T11:00:14.839Z,6.50
2023-04-19T11:01:14.839Z,6.10
2023-04-19T11:02:14.872Z,5.50
2023-04-19T11:03:14.913Z,5.40
2023-04-19T11:04:14.862Z,5.40
2023-04-19T11:05:14.778Z,5.40
2023-04-19T11:06:14.763Z,5.40
2023-04-19T11:07:14.788Z,5.40
2023-04-19T11:08:14.724Z,4.90
2023-04-19T11:09:14.873Z,5.10
2023-04-19T11:10:14.703Z,4.70
2023-04-19T11:11:14.737Z,5.00
2023-04-19T11:12:14.695Z,5.00
2023-04-19T11:13:14.652Z,5.20
2023-04-19T11:14:14.650Z,4.80
2023-04-19T11:15:14.640Z,5.10
2023-04-19T11:16:14.700Z,4.60
2023-04-19T11:17:14.620Z,4.30
2023-04-19T11:18:14.620Z,4.50
2023-04-19T11:19:15.033Z,4.90
2023-04-19T11:20:14.620Z,4.80
2023-04-19T11:21:14.615Z,5.00
2023-04-19T11:22:14.551Z,4.70
2023-04-19T11:23:14.572Z,4.20
2023-04-19T11:24:14.520Z,4.70
2023-04-19T11:25:14.526Z,4.30
2023-04-19T11:26:14.510Z,4.20
2023-04-19T11:27:14.491Z,3.90
2023-04-19T11:28:14.452Z,4.10
2023-04-19T11:29:14.694Z,4.40
2023-04-19T11:30:14.443Z,4.10
2023-04-19T11:31:14.503Z,4.10
2023-04-19T11:32:14.467Z,3.80
2023-04-19T11:33:14.402Z,3.90
2023-04-19T11:34:14.619Z,3.90
2023-04-19T11:35:14.376Z,3.80
2023-04-19T11:36:14.365Z,3.50
2023-04-19T11:37:14.411Z,3.50
2023-04-19T11:38:14.324Z,3.50
2023-04-19T11:39:14.318Z,3.60
2023-04-19T11:40:14.309Z,4.00
2023-04-19T11:41:14.295Z,3.30
2023-04-19T11:42:14.324Z,3.40
2023-04-19T11:43:14.285Z,3.40
2023-04-19T11:44:14.574Z,3.20
2023-04-19T11:45:26.120Z,3.30
2023-04-19T11:46:15.326Z,3.20
2023-04-19T11:47:14.375Z,3.50
2023-04-19T11:48:14.287Z,3.50
2023-04-19T11:49:14.182Z,3.50
2023-04-19T11:50:14.196Z,2.90
2023-04-19T11:51:14.179Z,3.20
2023-04-19T11:52:14.134Z,2.90
2023-04-19T11:53:14.173Z,3.60
2023-04-19T11:54:14.323Z,3.30
2023-04-19T11:55:14.126Z,3.30
2023-04-19T11:56:14.120Z,3.20
2023-04-19T11:57:14.128Z,3.00
2023-04-19T11:58:14.079Z,3.20
2023-04-19T11:59:14.074Z,2.90
2023-04-19T12:00:14.050Z,3.00
2023-04-19T12:01:14.056Z,3.00
2023-04-19T12:02:14.075Z,3.40
2023-04-19T12:03:14.320Z,3.20
2023-04-19T12:04:14.335Z,3.00
2023-04-19T12:05:14.280Z,3.00
2023-04-19T12:06:13.975Z,2.50
2023-04-19T12:07:13.983Z,2.80
2023-04-19T12:08:13.990Z,2.80
2023-04-19T12:09:13.925Z,2.70
2023-04-19T12:10:13.925Z,2.70
2023-04-19T12:11:13.937Z,2.40
2023-04-19T12:12:13.899Z,2.90
2023-04-19T12:13:13.912Z,2.80
2023-04-19T12:14:13.987Z,2.40
2023-04-19T12:15:13.874Z,2.30
2023-04-19T12:16:13.859Z,2.20
2023-04-19T12:17:13.881Z,2.40
2023-04-19T12:18:13.852Z,2.20
2023-04-19T12:19:14.059Z,1.90
2023-04-19T12:20:13.830Z,1.80
2023-04-19T12:21:13.793Z,1.90
2023-04-19T12:22:13.777Z,1.90
2023-04-19T12:23:13.785Z,1.60
2023-04-19T12:24:13.750Z,1.90
2023-04-19T12:25:13.757Z,2.20
2023-04-19T12:26:13.726Z,2.10
2023-04-19T12:27:13.713Z,2.30
2023-04-19T12:28:13.722Z,2.20
2023-04-19T12:29:13.912Z,2.00
2023-04-19T12:30:13.654Z,2.00
2023-04-19T12:31:13.644Z,1.60
2023-04-19T12:32:13.680Z,1.20
2023-04-19T12:33:13.711Z,1.50
2023-04-19T12:34:13.602Z,1.50
2023-04-19T12:35:13.598Z,1.80
2023-04-19T12:36:13.575Z,1.60
2023-04-19T12:37:13.590Z,1.30
2023-04-19T12:38:13.598Z,1.50
2023-04-19T12:39:13.810Z,1.30
2023-04-19T12:40:13.536Z,1.50
2023-04-19T12:41:13.530Z,1.40
2023-04-19T12:42:13.495Z,1.50
2023-04-19T12:43:13.504Z,1.30
2023-04-19T12:44:13.500Z,1.10
2023-04-19T12:45:13.487Z,1.20
2023-04-19T12:46:13.519Z,1.20
2023-04-19T12:47:13.432Z,1.40
2023-04-19T12:48:13.451Z,1.30
2023-04-19T12:49:13.646Z,1.30
2023-04-19T12:50:13.406Z,1.60
2023-04-19T12:51:13.379Z,1.20
2023-04-19T12:52:13.375Z,1.40
2023-04-19T12:53:13.413Z,1.20
2023-04-19T12:54:13.369Z,1.50
2023-04-19T12:55:13.337Z,1.50
2023-04-19T12:56:13.350Z,1.30
2023-04-19T12:57:13.322Z,1.60
2023-04-19T12:58:13.300Z,1.30
2023-04-19T12:59:13.354Z,1.40
2023-04-19T13:00:13.283Z,1.30
2023-04-19T13:01:13.310Z,1.20
2023-04-19T13:02:13.277Z,1.40
2023-04-19T13:03:13.429Z,1.40
2023-04-19T13:04:13.470Z,1.20
2023-04-19T13:05:13.246Z,1.60
2023-04-19T13:06:13.187Z,1.40
2023-04-19T13:07:13.195Z,1.50
2023-04-19T13:08:13.157Z,1.30
2023-04-19T13:09:14.830Z,1.10
2023-04-19T13:10:13.132Z,1.40
2023-04-19T13:11:13.136Z,1.40
2023-04-19T13:12:13.107Z,1.30
2023-04-19T13:13:13.129Z,1.10
2023-04-19T13:14:13.092Z,1.20
2023-04-19T13:15:13.096Z,1.20
2023-04-19T13:16:13.128Z,1.10
2023-04-19T13:17:13.064Z,1.20
2023-04-19T13:18:13.036Z,1.20
2023-04-19T13:19:13.052Z,1.20
2023-04-19T13:20:13.029Z,1.00
2023-04-19T13:21:13.008Z,1.10
2023-04-19T13:22:12.985Z,1.30
2023-04-19T13:23:12.982Z,1.20
2023-04-19T13:24:12.987Z,1.50
2023-04-19T13:25:12.987Z,1.20
2023-04-19T13:26:12.940Z,1.30
2023-04-19T13:27:13.034Z,1.20
2023-04-19T13:28:12.921Z,1.10
2023-04-19T13:29:12.919Z,1.10
2023-04-19T13:30:12.924Z,1.20
2023-04-19T13:31:12.873Z,1.60
2023-04-19T13:32:12.858Z,1.20
2023-04-19T13:33:12.871Z,1.20
2023-04-19T13:34:12.846Z,1.40
2023-04-19T13:35:12.822Z,1.50
2023-04-19T13:36:12.809Z,1.60
2023-04-19T13:37:12.792Z,1.30